TCX40EP LEGE-EGGD
Flight info
| Callsign | TCX40EP |
|---|---|
| Flight time | 1h 46m |
| Altitude | 30000 |
| Route | GEANT DCT ROCAN DCT TOU DCT AGN DCT SECHE DCT UVELI DCT CNA DCT MANAK DCT MUREL DCT NOZHU DCT SHIRI DCT TOJAQ |
| Aircraft | A321/M-SDE3FGHIRWY/LB1 |
Departure
| Time | 2026-04-21 11:59 |
|---|---|
| Airport | Girona-Costa Brava Airport (LEGE) |
Arrival
| Time | 2026-04-21 13:45 |
|---|---|
| Airport | Bristol Airport (EGGD) |
| Time | Latitude | Longitude | Altitude | Speed | Heading |
|---|---|---|---|---|---|
| 2026-04-21 11:31 | 41.89853 | 2.76479 | 420 ft | 0 kts | 106° |
| 2026-04-21 11:51 | 41.89855 | 2.76471 | 410 ft | 4 kts | 105° |
| 2026-04-21 11:51 | 41.89859 | 2.76436 | 415 ft | 4 kts | 83° |
| 2026-04-21 11:51 | 41.89852 | 2.76409 | 416 ft | 4 kts | 19° |
| 2026-04-21 11:52 | 41.89843 | 2.76408 | 411 ft | 1 kts | 329° |
| 2026-04-21 11:52 | 41.89841 | 2.76410 | 421 ft | 2 kts | 329° |
| 2026-04-21 11:54 | 41.89843 | 2.76408 | 421 ft | 2 kts | 329° |
| 2026-04-21 11:54 | 41.89864 | 2.76392 | 414 ft | 6 kts | 329° |
| 2026-04-21 11:54 | 41.89895 | 2.76321 | 420 ft | 13 kts | 285° |
| 2026-04-21 11:54 | 41.89945 | 2.76233 | 429 ft | 12 kts | 355° |
| 2026-04-21 11:55 | 41.90038 | 2.76265 | 427 ft | 17 kts | 16° |
| 2026-04-21 11:55 | 41.90175 | 2.76316 | 429 ft | 23 kts | 15° |
| 2026-04-21 11:55 | 41.90342 | 2.76380 | 430 ft | 27 kts | 16° |
| 2026-04-21 11:55 | 41.90522 | 2.76448 | 438 ft | 26 kts | 16° |
| 2026-04-21 11:56 | 41.90682 | 2.76509 | 449 ft | 21 kts | 16° |
| 2026-04-21 11:56 | 41.90807 | 2.76557 | 456 ft | 17 kts | 16° |
| 2026-04-21 11:56 | 41.90939 | 2.76607 | 462 ft | 22 kts | 15° |
| 2026-04-21 11:56 | 41.91114 | 2.76674 | 464 ft | 29 kts | 15° |
| 2026-04-21 11:57 | 41.91304 | 2.76746 | 466 ft | 27 kts | 15° |
| 2026-04-21 11:57 | 41.91442 | 2.76735 | 470 ft | 15 kts | 328° |
| 2026-04-21 11:57 | 41.91521 | 2.76675 | 473 ft | 10 kts | 321° |
| 2026-04-21 11:57 | 41.91526 | 2.76603 | 478 ft | 8 kts | 232° |
| 2026-04-21 11:58 | 41.91464 | 2.76573 | 476 ft | 11 kts | 193° |
| 2026-04-21 11:58 | 41.91296 | 2.76511 | 472 ft | 55 kts | 196° |
| 2026-04-21 11:58 | 41.90707 | 2.76289 | 462 ft | 118 kts | 196° |
| 2026-04-21 11:58 | 41.89758 | 2.75927 | 503 ft | 159 kts | 196° |
| 2026-04-21 11:59 | 41.88725 | 2.75532 | 1174 ft | 152 kts | 194° |
| 2026-04-21 11:59 | 41.87704 | 2.75143 | 1779 ft | 153 kts | 193° |
| 2026-04-21 11:59 | 41.86678 | 2.74762 | 2343 ft | 155 kts | 195° |
| 2026-04-21 11:59 | 41.85578 | 2.74353 | 2546 ft | 174 kts | 196° |
| 2026-04-21 12:00 | 41.84348 | 2.73896 | 2727 ft | 194 kts | 196° |
| 2026-04-21 12:00 | 41.82995 | 2.73338 | 2937 ft | 212 kts | 206° |
| 2026-04-21 12:00 | 41.81998 | 2.71929 | 3380 ft | 214 kts | 251° |
| 2026-04-21 12:00 | 41.81997 | 2.69972 | 3962 ft | 220 kts | 291° |
| 2026-04-21 12:01 | 41.83002 | 2.68455 | 4560 ft | 225 kts | 331° |
| 2026-04-21 12:01 | 41.84519 | 2.67829 | 5098 ft | 230 kts | 344° |
| 2026-04-21 12:01 | 41.86086 | 2.67350 | 5663 ft | 232 kts | 345° |
| 2026-04-21 12:01 | 41.87671 | 2.66878 | 6250 ft | 234 kts | 346° |
| 2026-04-21 12:02 | 41.89260 | 2.66402 | 6777 ft | 235 kts | 345° |
| 2026-04-21 12:02 | 41.92458 | 2.65414 | 7887 ft | 236 kts | 344° |
| 2026-04-21 12:02 | 41.94060 | 2.64908 | 8413 ft | 237 kts | 344° |
| 2026-04-21 12:03 | 41.95668 | 2.64406 | 8951 ft | 238 kts | 344° |
| 2026-04-21 12:03 | 41.97300 | 2.63892 | 9348 ft | 248 kts | 343° |
| 2026-04-21 12:03 | 41.99053 | 2.63327 | 9462 ft | 271 kts | 343° |
| 2026-04-21 12:03 | 42.00939 | 2.62721 | 9830 ft | 284 kts | 344° |
| 2026-04-21 12:04 | 42.02914 | 2.62091 | 10117 ft | 302 kts | 344° |
| 2026-04-21 12:04 | 42.05031 | 2.61416 | 10247 ft | 323 kts | 344° |
| 2026-04-21 12:04 | 42.07283 | 2.60654 | 10363 ft | 343 kts | 339° |
| 2026-04-21 12:04 | 42.09464 | 2.59261 | 10702 ft | 352 kts | 324° |
| 2026-04-21 12:05 | 42.11397 | 2.57216 | 11272 ft | 355 kts | 319° |
| 2026-04-21 12:05 | 42.13303 | 2.55078 | 11896 ft | 358 kts | 319° |
| 2026-04-21 12:05 | 42.15232 | 2.52926 | 12537 ft | 361 kts | 319° |
| 2026-04-21 12:05 | 42.17179 | 2.50755 | 13157 ft | 365 kts | 319° |
| 2026-04-21 12:06 | 42.19138 | 2.48570 | 13792 ft | 367 kts | 319° |
| 2026-04-21 12:06 | 42.21114 | 2.46366 | 14346 ft | 370 kts | 319° |
| 2026-04-21 12:06 | 42.23103 | 2.44155 | 14896 ft | 373 kts | 320° |
| 2026-04-21 12:06 | 42.25095 | 2.41950 | 15427 ft | 375 kts | 320° |
| 2026-04-21 12:07 | 42.27124 | 2.39702 | 15970 ft | 378 kts | 320° |
| 2026-04-21 12:07 | 42.29161 | 2.37440 | 16511 ft | 381 kts | 319° |
| 2026-04-21 12:07 | 42.31217 | 2.35150 | 17033 ft | 384 kts | 319° |
| 2026-04-21 12:07 | 42.33282 | 2.32847 | 17551 ft | 386 kts | 319° |
| 2026-04-21 12:08 | 42.35363 | 2.30527 | 18070 ft | 388 kts | 319° |
| 2026-04-21 12:08 | 42.37459 | 2.28190 | 18560 ft | 390 kts | 319° |
| 2026-04-21 12:08 | 42.39555 | 2.25842 | 19026 ft | 392 kts | 319° |
| 2026-04-21 12:08 | 42.41668 | 2.23480 | 19452 ft | 394 kts | 319° |
| 2026-04-21 12:09 | 42.43786 | 2.21115 | 19866 ft | 397 kts | 319° |
| 2026-04-21 12:09 | 42.45899 | 2.18760 | 20265 ft | 399 kts | 319° |
| 2026-04-21 12:09 | 42.48048 | 2.16360 | 20667 ft | 401 kts | 319° |
| 2026-04-21 12:09 | 42.50205 | 2.13948 | 21079 ft | 403 kts | 319° |
| 2026-04-21 12:10 | 42.52376 | 2.11512 | 21494 ft | 406 kts | 319° |
| 2026-04-21 12:10 | 42.54555 | 2.09064 | 21888 ft | 408 kts | 319° |
| 2026-04-21 12:10 | 42.56749 | 2.06599 | 22300 ft | 410 kts | 319° |
| 2026-04-21 12:10 | 42.58955 | 2.04119 | 22662 ft | 413 kts | 319° |
| 2026-04-21 12:11 | 42.61171 | 2.01626 | 23041 ft | 415 kts | 319° |
| 2026-04-21 12:11 | 42.63399 | 1.99116 | 23427 ft | 417 kts | 319° |
| 2026-04-21 12:11 | 42.65636 | 1.96592 | 23745 ft | 419 kts | 319° |
| 2026-04-21 12:11 | 42.68042 | 1.94323 | 24055 ft | 424 kts | 328° |
| 2026-04-21 12:12 | 42.70704 | 1.92561 | 24394 ft | 427 kts | 334° |
| 2026-04-21 12:12 | 42.73415 | 1.90889 | 24710 ft | 428 kts | 333° |
| 2026-04-21 12:12 | 42.76130 | 1.89209 | 25015 ft | 430 kts | 333° |
| 2026-04-21 12:12 | 42.78862 | 1.87510 | 25311 ft | 433 kts | 333° |
| 2026-04-21 12:13 | 42.81609 | 1.85795 | 25619 ft | 435 kts | 333° |
| 2026-04-21 12:13 | 42.84367 | 1.84070 | 25900 ft | 437 kts | 333° |
| 2026-04-21 12:13 | 42.87133 | 1.82340 | 26205 ft | 439 kts | 333° |
| 2026-04-21 12:13 | 42.89913 | 1.80604 | 26512 ft | 440 kts | 333° |
| 2026-04-21 12:14 | 42.92701 | 1.78858 | 26809 ft | 442 kts | 333° |
| 2026-04-21 12:14 | 42.95496 | 1.77103 | 27094 ft | 443 kts | 333° |
| 2026-04-21 12:14 | 42.98307 | 1.75341 | 27376 ft | 445 kts | 333° |
| 2026-04-21 12:14 | 43.01127 | 1.73573 | 27671 ft | 447 kts | 333° |
| 2026-04-21 12:15 | 43.03923 | 1.71819 | 28006 ft | 448 kts | 333° |
| 2026-04-21 12:15 | 43.06756 | 1.70036 | 28311 ft | 449 kts | 333° |
| 2026-04-21 12:15 | 43.09594 | 1.68247 | 28682 ft | 448 kts | 333° |
| 2026-04-21 12:15 | 43.12417 | 1.66466 | 29076 ft | 447 kts | 333° |
| 2026-04-21 12:16 | 43.15239 | 1.64686 | 29462 ft | 445 kts | 332° |
| 2026-04-21 12:16 | 43.18054 | 1.62908 | 29821 ft | 445 kts | 332° |
| 2026-04-21 12:16 | 43.20854 | 1.61139 | 29901 ft | 438 kts | 332° |
| 2026-04-21 12:17 | 43.26323 | 1.57678 | 29897 ft | 430 kts | 332° |
| 2026-04-21 12:17 | 43.31749 | 1.54230 | 29900 ft | 429 kts | 332° |
| 2026-04-21 12:18 | 43.37172 | 1.50776 | 29897 ft | 430 kts | 332° |
| 2026-04-21 12:18 | 43.42573 | 1.47338 | 29911 ft | 430 kts | 332° |
| 2026-04-21 12:19 | 43.47999 | 1.43877 | 29913 ft | 430 kts | 332° |
| 2026-04-21 12:19 | 43.53417 | 1.40420 | 29912 ft | 429 kts | 332° |
| 2026-04-21 12:20 | 43.58782 | 1.36985 | 29906 ft | 428 kts | 332° |
| 2026-04-21 12:20 | 43.64176 | 1.33484 | 29913 ft | 427 kts | 329° |
| 2026-04-21 12:21 | 43.68873 | 1.28628 | 29913 ft | 421 kts | 311° |
| 2026-04-21 12:21 | 43.72303 | 1.22124 | 29908 ft | 418 kts | 302° |
| 2026-04-21 12:22 | 43.75500 | 1.15403 | 29898 ft | 418 kts | 302° |
| 2026-04-21 12:22 | 43.78700 | 1.08669 | 29892 ft | 419 kts | 302° |
| 2026-04-21 12:23 | 43.81902 | 1.01910 | 29889 ft | 420 kts | 302° |
| 2026-04-21 12:23 | 43.85106 | 0.95139 | 29915 ft | 420 kts | 302° |
| 2026-04-21 12:24 | 43.88661 | 0.88745 | 29909 ft | 421 kts | 315° |
| 2026-04-21 12:24 | 43.93540 | 0.84231 | 29908 ft | 426 kts | 333° |
| 2026-04-21 12:25 | 43.98928 | 0.80786 | 29898 ft | 426 kts | 332° |
| 2026-04-21 12:25 | 44.04269 | 0.77329 | 29910 ft | 426 kts | 332° |
| 2026-04-21 12:26 | 44.09648 | 0.73839 | 29891 ft | 426 kts | 332° |
| 2026-04-21 12:26 | 44.15026 | 0.70345 | 29886 ft | 426 kts | 332° |
| 2026-04-21 12:27 | 44.20409 | 0.66856 | 29882 ft | 427 kts | 332° |
| 2026-04-21 12:27 | 44.25787 | 0.63357 | 29899 ft | 427 kts | 332° |
| 2026-04-21 12:28 | 44.31164 | 0.59838 | 29907 ft | 426 kts | 332° |
| 2026-04-21 12:28 | 44.36540 | 0.56316 | 29908 ft | 426 kts | 332° |
| 2026-04-21 12:29 | 44.41906 | 0.52802 | 29901 ft | 426 kts | 332° |
| 2026-04-21 12:29 | 44.47241 | 0.49300 | 29927 ft | 425 kts | 332° |
| 2026-04-21 12:30 | 44.52592 | 0.45761 | 29923 ft | 424 kts | 332° |
| 2026-04-21 12:30 | 44.57921 | 0.42216 | 29926 ft | 424 kts | 332° |
| 2026-04-21 12:31 | 44.63253 | 0.38661 | 29938 ft | 423 kts | 332° |
| 2026-04-21 12:31 | 44.67676 | 0.35702 | 29914 ft | 424 kts | 332° |
| 2026-04-21 12:32 | 44.73007 | 0.32143 | 29909 ft | 424 kts | 332° |
| 2026-04-21 12:32 | 44.78342 | 0.28578 | 29908 ft | 425 kts | 332° |
| 2026-04-21 12:33 | 44.83683 | 0.25001 | 29913 ft | 425 kts | 332° |
| 2026-04-21 12:33 | 44.89023 | 0.21405 | 29913 ft | 425 kts | 331° |
| 2026-04-21 12:34 | 44.94358 | 0.17801 | 29910 ft | 425 kts | 331° |
| 2026-04-21 12:34 | 44.99698 | 0.14204 | 29921 ft | 425 kts | 331° |
| 2026-04-21 12:35 | 45.05035 | 0.10593 | 29933 ft | 424 kts | 331° |
| 2026-04-21 12:35 | 45.10323 | 0.07012 | 29936 ft | 424 kts | 331° |
| 2026-04-21 12:36 | 45.15634 | 0.03405 | 29934 ft | 423 kts | 331° |
| 2026-04-21 12:36 | 45.20935 | -0.00208 | 29949 ft | 423 kts | 331° |
| 2026-04-21 12:37 | 45.26238 | -0.03823 | 29936 ft | 423 kts | 331° |
| 2026-04-21 12:37 | 45.31552 | -0.07451 | 29936 ft | 423 kts | 331° |
| 2026-04-21 12:38 | 45.36817 | -0.11054 | 29935 ft | 423 kts | 331° |
| 2026-04-21 12:38 | 45.42121 | -0.14706 | 29954 ft | 423 kts | 331° |
| 2026-04-21 12:39 | 45.47423 | -0.18354 | 29960 ft | 423 kts | 331° |
| 2026-04-21 12:39 | 45.52722 | -0.22003 | 29956 ft | 423 kts | 331° |
| 2026-04-21 12:40 | 45.58023 | -0.25662 | 29969 ft | 423 kts | 331° |
| 2026-04-21 12:40 | 45.63313 | -0.29321 | 29966 ft | 423 kts | 331° |
| 2026-04-21 12:41 | 45.68256 | -0.33719 | 29961 ft | 417 kts | 319° |
| 2026-04-21 12:41 | 45.72812 | -0.38866 | 29974 ft | 417 kts | 319° |
| 2026-04-21 12:42 | 45.77369 | -0.44013 | 29983 ft | 417 kts | 319° |
| 2026-04-21 12:42 | 45.81922 | -0.49161 | 29987 ft | 417 kts | 319° |
| 2026-04-21 12:43 | 45.86453 | -0.54286 | 29982 ft | 416 kts | 319° |
| 2026-04-21 12:43 | 45.90876 | -0.59314 | 29989 ft | 416 kts | 319° |
| 2026-04-21 12:44 | 45.95413 | -0.64482 | 29984 ft | 416 kts | 319° |
| 2026-04-21 12:44 | 45.99953 | -0.69657 | 29996 ft | 416 kts | 319° |
| 2026-04-21 12:45 | 46.04484 | -0.74828 | 29988 ft | 415 kts | 319° |
| 2026-04-21 12:45 | 46.08962 | -0.79952 | 29995 ft | 415 kts | 319° |
| 2026-04-21 12:46 | 46.13452 | -0.85110 | 29967 ft | 416 kts | 319° |
| 2026-04-21 12:46 | 46.17971 | -0.90323 | 29988 ft | 416 kts | 319° |
| 2026-04-21 12:47 | 46.22649 | -0.95238 | 29981 ft | 419 kts | 328° |
| 2026-04-21 12:47 | 46.27783 | -0.99246 | 29985 ft | 419 kts | 328° |
| 2026-04-21 12:48 | 46.32911 | -1.03281 | 29987 ft | 419 kts | 328° |
| 2026-04-21 12:48 | 46.38032 | -1.07326 | 30003 ft | 419 kts | 328° |
| 2026-04-21 12:49 | 46.43150 | -1.11377 | 30016 ft | 418 kts | 328° |
| 2026-04-21 12:49 | 46.48260 | -1.15419 | 30019 ft | 418 kts | 328° |
| 2026-04-21 12:50 | 46.53365 | -1.19459 | 30031 ft | 418 kts | 328° |
| 2026-04-21 12:50 | 46.58462 | -1.23520 | 30034 ft | 418 kts | 327° |
| 2026-04-21 12:51 | 46.63447 | -1.27526 | 30035 ft | 418 kts | 327° |
| 2026-04-21 12:51 | 46.68549 | -1.31600 | 30036 ft | 419 kts | 328° |
| 2026-04-21 12:52 | 46.73660 | -1.35662 | 30036 ft | 418 kts | 328° |
| 2026-04-21 12:52 | 46.78765 | -1.39745 | 30034 ft | 418 kts | 328° |
| 2026-04-21 12:53 | 46.83871 | -1.43844 | 30032 ft | 418 kts | 327° |
| 2026-04-21 12:53 | 46.88967 | -1.47952 | 30028 ft | 418 kts | 327° |
| 2026-04-21 12:54 | 46.94059 | -1.52061 | 30028 ft | 418 kts | 327° |
| 2026-04-21 12:54 | 46.99156 | -1.56178 | 30042 ft | 418 kts | 327° |
| 2026-04-21 12:55 | 47.04227 | -1.60298 | 30042 ft | 417 kts | 327° |
| 2026-04-21 12:55 | 47.09298 | -1.64430 | 30036 ft | 416 kts | 327° |
| 2026-04-21 12:56 | 47.14370 | -1.68562 | 30020 ft | 417 kts | 327° |
| 2026-04-21 12:56 | 47.19399 | -1.72659 | 30034 ft | 417 kts | 327° |
| 2026-04-21 12:57 | 47.24398 | -1.76748 | 30041 ft | 417 kts | 327° |
| 2026-04-21 12:57 | 47.29465 | -1.80902 | 30041 ft | 417 kts | 327° |
| 2026-04-21 12:58 | 47.34534 | -1.85066 | 30041 ft | 416 kts | 327° |
| 2026-04-21 12:58 | 47.39594 | -1.89236 | 30062 ft | 416 kts | 327° |
| 2026-04-21 12:59 | 47.44649 | -1.93414 | 30051 ft | 416 kts | 327° |
| 2026-04-21 12:59 | 47.49443 | -1.97377 | 30053 ft | 415 kts | 327° |
| 2026-04-21 13:00 | 47.54483 | -2.01555 | 30047 ft | 415 kts | 326° |
| 2026-04-21 13:00 | 47.59519 | -2.05743 | 30066 ft | 415 kts | 327° |
| 2026-04-21 13:01 | 47.64522 | -2.09903 | 30056 ft | 415 kts | 326° |
| 2026-04-21 13:01 | 47.69562 | -2.14106 | 30039 ft | 416 kts | 326° |
| 2026-04-21 13:02 | 47.74617 | -2.18328 | 30044 ft | 417 kts | 326° |
| 2026-04-21 13:02 | 47.82217 | -2.24702 | 30066 ft | 418 kts | 326° |
| 2026-04-21 13:03 | 47.87277 | -2.28960 | 30072 ft | 418 kts | 326° |
| 2026-04-21 13:03 | 47.92335 | -2.33218 | 30072 ft | 418 kts | 326° |
| 2026-04-21 13:04 | 47.97403 | -2.37502 | 30072 ft | 418 kts | 326° |
| 2026-04-21 13:04 | 48.02428 | -2.41761 | 30078 ft | 418 kts | 326° |
| 2026-04-21 13:05 | 48.07488 | -2.46047 | 30080 ft | 417 kts | 326° |
| 2026-04-21 13:05 | 48.12533 | -2.50349 | 30083 ft | 417 kts | 326° |
| 2026-04-21 13:06 | 48.17586 | -2.54649 | 30082 ft | 417 kts | 326° |
| 2026-04-21 13:06 | 48.22631 | -2.58959 | 30086 ft | 418 kts | 326° |
| 2026-04-21 13:07 | 48.27599 | -2.63218 | 30077 ft | 419 kts | 326° |
| 2026-04-21 13:07 | 48.32658 | -2.67567 | 30086 ft | 419 kts | 326° |
| 2026-04-21 13:08 | 48.37724 | -2.71924 | 30097 ft | 420 kts | 326° |
| 2026-04-21 13:08 | 48.42795 | -2.76284 | 30106 ft | 420 kts | 326° |
| 2026-04-21 13:09 | 48.47639 | -2.80468 | 30114 ft | 420 kts | 326° |
| 2026-04-21 13:09 | 48.52678 | -2.84842 | 30105 ft | 419 kts | 326° |
| 2026-04-21 13:10 | 48.57706 | -2.89206 | 30107 ft | 419 kts | 326° |
| 2026-04-21 13:10 | 48.62694 | -2.93539 | 30123 ft | 419 kts | 326° |
| 2026-04-21 13:11 | 48.67752 | -2.97952 | 30127 ft | 419 kts | 326° |
| 2026-04-21 13:11 | 48.72792 | -3.02371 | 30132 ft | 419 kts | 326° |
| 2026-04-21 13:12 | 48.77831 | -3.06800 | 30141 ft | 419 kts | 326° |
| 2026-04-21 13:12 | 48.82883 | -3.11222 | 30134 ft | 420 kts | 326° |
| 2026-04-21 13:13 | 48.87840 | -3.15576 | 30137 ft | 420 kts | 326° |
| 2026-04-21 13:13 | 48.92904 | -3.20051 | 30136 ft | 421 kts | 326° |
| 2026-04-21 13:14 | 48.97964 | -3.24522 | 30136 ft | 421 kts | 326° |
| 2026-04-21 13:14 | 49.02994 | -3.28972 | 30143 ft | 421 kts | 326° |
| 2026-04-21 13:15 | 49.08047 | -3.33461 | 30171 ft | 420 kts | 326° |
| 2026-04-21 13:15 | 49.13054 | -3.37933 | 30173 ft | 420 kts | 326° |
| 2026-04-21 13:16 | 49.18092 | -3.42432 | 30173 ft | 420 kts | 326° |
| 2026-04-21 13:16 | 49.22288 | -3.46190 | 30178 ft | 419 kts | 326° |
| 2026-04-21 13:17 | 49.27326 | -3.50719 | 30191 ft | 419 kts | 325° |
| 2026-04-21 13:17 | 49.32413 | -3.55124 | 30188 ft | 421 kts | 332° |
| 2026-04-21 13:18 | 49.37880 | -3.58321 | 30160 ft | 424 kts | 335° |
| 2026-04-21 13:18 | 49.43423 | -3.61490 | 30162 ft | 425 kts | 335° |
| 2026-04-21 13:19 | 49.48975 | -3.64646 | 30180 ft | 426 kts | 335° |
| 2026-04-21 13:19 | 49.54533 | -3.67820 | 30178 ft | 426 kts | 335° |
| 2026-04-21 13:20 | 49.60089 | -3.71030 | 30186 ft | 426 kts | 334° |
| 2026-04-21 13:20 | 49.65637 | -3.74249 | 30194 ft | 426 kts | 335° |
| 2026-04-21 13:21 | 49.71501 | -3.76063 | 30211 ft | 437 kts | 353° |
| 2026-04-21 13:21 | 49.77618 | -3.75497 | 30218 ft | 441 kts | 359° |
| 2026-04-21 13:22 | 49.83742 | -3.74771 | 30213 ft | 441 kts | 359° |
| 2026-04-21 13:22 | 49.89477 | -3.74098 | 30211 ft | 441 kts | 359° |
| 2026-04-21 13:23 | 49.95598 | -3.73375 | 30227 ft | 441 kts | 359° |
| 2026-04-21 13:23 | 50.01342 | -3.72687 | 30230 ft | 440 kts | 359° |
| 2026-04-21 13:24 | 50.07112 | -3.71998 | 30224 ft | 440 kts | 359° |
| 2026-04-21 13:24 | 50.13328 | -3.71260 | 30234 ft | 453 kts | 359° |
| 2026-04-21 13:25 | 50.19631 | -3.70514 | 30234 ft | 455 kts | 359° |
| 2026-04-21 13:25 | 50.25903 | -3.69756 | 29812 ft | 452 kts | 359° |
| 2026-04-21 13:26 | 50.29031 | -3.69370 | 27903 ft | 453 kts | 359° |
| 2026-04-21 13:26 | 50.32195 | -3.68988 | 26116 ft | 455 kts | 360° |
| 2026-04-21 13:26 | 50.35324 | -3.68611 | 24770 ft | 446 kts | 360° |
| 2026-04-21 13:26 | 50.38388 | -3.68237 | 23625 ft | 434 kts | 360° |
| 2026-04-21 13:27 | 50.41262 | -3.67879 | 23158 ft | 405 kts | 0° |
| 2026-04-21 13:27 | 50.43982 | -3.67469 | 22620 ft | 382 kts | 1° |
| 2026-04-21 13:27 | 50.46589 | -3.66991 | 22105 ft | 378 kts | 2° |
| 2026-04-21 13:27 | 50.49211 | -3.66474 | 21599 ft | 379 kts | 3° |
| 2026-04-21 13:28 | 50.51821 | -3.65945 | 21107 ft | 379 kts | 3° |
| 2026-04-21 13:28 | 50.54434 | -3.65420 | 20615 ft | 377 kts | 3° |
| 2026-04-21 13:28 | 50.57020 | -3.64911 | 20135 ft | 372 kts | 3° |
| 2026-04-21 13:28 | 50.59577 | -3.64416 | 19693 ft | 368 kts | 3° |
| 2026-04-21 13:29 | 50.62105 | -3.63939 | 19232 ft | 364 kts | 4° |
| 2026-04-21 13:29 | 50.64606 | -3.63467 | 18795 ft | 360 kts | 3° |
| 2026-04-21 13:29 | 50.67082 | -3.62993 | 18322 ft | 357 kts | 4° |
| 2026-04-21 13:29 | 50.69535 | -3.62523 | 17870 ft | 353 kts | 4° |
| 2026-04-21 13:30 | 50.71960 | -3.62066 | 17417 ft | 349 kts | 4° |
| 2026-04-21 13:30 | 50.74368 | -3.61611 | 16977 ft | 348 kts | 4° |
| 2026-04-21 13:30 | 50.76761 | -3.61156 | 16518 ft | 345 kts | 4° |
| 2026-04-21 13:30 | 50.79135 | -3.60705 | 16061 ft | 342 kts | 5° |
| 2026-04-21 13:31 | 50.81472 | -3.60255 | 15821 ft | 333 kts | 5° |
| 2026-04-21 13:31 | 50.83727 | -3.59817 | 15695 ft | 320 kts | 5° |
| 2026-04-21 13:31 | 50.85902 | -3.59391 | 15533 ft | 309 kts | 5° |
| 2026-04-21 13:31 | 50.88012 | -3.58980 | 15273 ft | 303 kts | 5° |
| 2026-04-21 13:32 | 50.90034 | -3.58590 | 15028 ft | 298 kts | 4° |
| 2026-04-21 13:32 | 50.92076 | -3.58078 | 14783 ft | 298 kts | 14° |
| 2026-04-21 13:32 | 50.93994 | -3.56822 | 14545 ft | 300 kts | 29° |
| 2026-04-21 13:32 | 50.95637 | -3.54823 | 14302 ft | 296 kts | 44° |
| 2026-04-21 13:33 | 50.97044 | -3.52460 | 14070 ft | 292 kts | 45° |
| 2026-04-21 13:33 | 50.98437 | -3.50134 | 13799 ft | 289 kts | 44° |
| 2026-04-21 13:33 | 50.99824 | -3.47846 | 13529 ft | 287 kts | 45° |
| 2026-04-21 13:33 | 51.01211 | -3.45560 | 13264 ft | 286 kts | 44° |
| 2026-04-21 13:34 | 51.02589 | -3.43293 | 12996 ft | 284 kts | 44° |
| 2026-04-21 13:34 | 51.03959 | -3.41041 | 12697 ft | 283 kts | 44° |
| 2026-04-21 13:34 | 51.05503 | -3.39134 | 12317 ft | 281 kts | 29° |
| 2026-04-21 13:34 | 51.07268 | -3.37963 | 11913 ft | 280 kts | 15° |
| 2026-04-21 13:35 | 51.09191 | -3.37487 | 11517 ft | 281 kts | 7° |
| 2026-04-21 13:35 | 51.11138 | -3.37163 | 11135 ft | 280 kts | 7° |
| 2026-04-21 13:35 | 51.13072 | -3.36838 | 10780 ft | 278 kts | 8° |
| 2026-04-21 13:35 | 51.14967 | -3.36512 | 10371 ft | 278 kts | 7° |
| 2026-04-21 13:36 | 51.16905 | -3.36049 | 9968 ft | 275 kts | 18° |
| 2026-04-21 13:36 | 51.18647 | -3.34884 | 9583 ft | 269 kts | 35° |
| 2026-04-21 13:36 | 51.20139 | -3.33135 | 9186 ft | 265 kts | 40° |
| 2026-04-21 13:36 | 51.21576 | -3.31333 | 8795 ft | 264 kts | 40° |
| 2026-04-21 13:37 | 51.23008 | -3.29545 | 8513 ft | 258 kts | 42° |
| 2026-04-21 13:37 | 51.24407 | -3.27795 | 8037 ft | 254 kts | 41° |
| 2026-04-21 13:37 | 51.25792 | -3.26073 | 7613 ft | 251 kts | 41° |
| 2026-04-21 13:37 | 51.27141 | -3.24400 | 7248 ft | 248 kts | 41° |
| 2026-04-21 13:38 | 51.28497 | -3.22700 | 6885 ft | 247 kts | 42° |
| 2026-04-21 13:38 | 51.29846 | -3.20995 | 6515 ft | 246 kts | 43° |
| 2026-04-21 13:38 | 51.31182 | -3.19300 | 6150 ft | 244 kts | 43° |
| 2026-04-21 13:38 | 51.32524 | -3.17596 | 5674 ft | 248 kts | 43° |
| 2026-04-21 13:39 | 51.33860 | -3.15905 | 5275 ft | 241 kts | 43° |
| 2026-04-21 13:39 | 51.35161 | -3.14262 | 4832 ft | 237 kts | 44° |
| 2026-04-21 13:39 | 51.36226 | -3.12277 | 4484 ft | 233 kts | 64° |
| 2026-04-21 13:39 | 51.36718 | -3.09827 | 4152 ft | 231 kts | 85° |
| 2026-04-21 13:40 | 51.36827 | -3.07310 | 3750 ft | 227 kts | 86° |
| 2026-04-21 13:40 | 51.36930 | -3.04840 | 3350 ft | 212 kts | 85° |
| 2026-04-21 13:40 | 51.37026 | -3.02564 | 3298 ft | 204 kts | 85° |
| 2026-04-21 13:40 | 51.37120 | -3.00318 | 3283 ft | 196 kts | 85° |
| 2026-04-21 13:41 | 51.37206 | -2.98228 | 3233 ft | 176 kts | 85° |
| 2026-04-21 13:41 | 51.37280 | -2.96430 | 3186 ft | 151 kts | 85° |
| 2026-04-21 13:41 | 51.37347 | -2.94820 | 3144 ft | 141 kts | 85° |
| 2026-04-21 13:41 | 51.37409 | -2.93319 | 3139 ft | 136 kts | 85° |
| 2026-04-21 13:42 | 51.37470 | -2.91827 | 2966 ft | 134 kts | 84° |
| 2026-04-21 13:42 | 51.37532 | -2.90345 | 2790 ft | 133 kts | 84° |
| 2026-04-21 13:42 | 51.37592 | -2.88878 | 2605 ft | 132 kts | 85° |
| 2026-04-21 13:42 | 51.37650 | -2.87410 | 2430 ft | 132 kts | 84° |
| 2026-04-21 13:43 | 51.37710 | -2.85940 | 2245 ft | 132 kts | 85° |
| 2026-04-21 13:43 | 51.37770 | -2.84476 | 2059 ft | 132 kts | 85° |
| 2026-04-21 13:43 | 51.37828 | -2.83010 | 1883 ft | 133 kts | 86° |
| 2026-04-21 13:43 | 51.37886 | -2.81545 | 1701 ft | 131 kts | 86° |
| 2026-04-21 13:44 | 51.37945 | -2.80095 | 1486 ft | 132 kts | 87° |
| 2026-04-21 13:44 | 51.38005 | -2.78629 | 1352 ft | 132 kts | 86° |
| 2026-04-21 13:44 | 51.38061 | -2.77136 | 1118 ft | 134 kts | 85° |
| 2026-04-21 13:44 | 51.38124 | -2.75670 | 983 ft | 133 kts | 86° |
| 2026-04-21 13:45 | 51.38178 | -2.74186 | 786 ft | 131 kts | 86° |
| 2026-04-21 13:45 | 51.38236 | -2.72733 | 643 ft | 126 kts | 85° |
| 2026-04-21 13:45 | 51.38278 | -2.71665 | 608 ft | 52 kts | 86° |
| 2026-04-21 13:45 | 51.38297 | -2.71187 | 618 ft | 39 kts | 86° |
| 2026-04-21 13:46 | 51.38309 | -2.70861 | 619 ft | 21 kts | 86° |
| 2026-04-21 13:46 | 51.38373 | -2.70740 | 614 ft | 13 kts | 15° |
| 2026-04-21 13:46 | 51.38457 | -2.70721 | 611 ft | 11 kts | 336° |
| 2026-04-21 13:46 | 51.38471 | -2.70821 | 612 ft | 8 kts | 267° |
| 2026-04-21 13:47 | 51.38467 | -2.70887 | 621 ft | 7 kts | 265° |
| 2026-04-21 13:47 | 51.38461 | -2.71057 | 615 ft | 19 kts | 266° |
| 2026-04-21 13:47 | 51.38453 | -2.71255 | 631 ft | 17 kts | 266° |
| 2026-04-21 13:47 | 51.38446 | -2.71444 | 613 ft | 16 kts | 266° |
| 2026-04-21 13:48 | 51.38470 | -2.71598 | 616 ft | 14 kts | 336° |
| 2026-04-21 13:48 | 51.38525 | -2.71608 | 614 ft | 1 kts | 358° |
| 2026-04-21 13:48 | 51.38532 | -2.71609 | 617 ft | 1 kts | 358° |
| 2026-04-21 13:48 | 51.38536 | -2.71609 | 612 ft | 0 kts | 358° |